createdAt,value
2022-09-22T00:03:01.683Z,41.56
2022-09-22T00:08:23.299Z,41.38
2022-09-22T00:13:47.902Z,41.31
2022-09-22T00:19:13.440Z,41.61
2022-09-22T00:24:35.097Z,41.58
2022-09-22T00:29:56.735Z,41.76
2022-09-22T00:35:18.393Z,41.49
2022-09-22T00:40:40.158Z,41.77
2022-09-22T00:46:13.555Z,41.38
2022-09-22T00:51:38.379Z,41.79
2022-09-22T00:57:18.136Z,41.36
2022-09-22T01:02:40.242Z,41.60
2022-09-22T01:08:02.573Z,41.79
2022-09-22T01:13:33.144Z,41.33
2022-09-22T01:19:29.502Z,41.80
2022-09-22T01:24:56.866Z,41.82
2022-09-22T01:30:18.520Z,41.60
2022-09-22T01:36:17.727Z,41.28
2022-09-22T01:41:52.041Z,41.74
2022-09-22T01:47:24.524Z,41.53
2022-09-22T01:52:48.352Z,41.58
2022-09-22T01:58:20.432Z,41.49
2022-09-22T02:03:45.119Z,41.21
2022-09-22T02:09:10.776Z,41.80
2022-09-22T02:14:32.621Z,41.15
2022-09-22T02:19:54.430Z,41.42
2022-09-22T02:25:16.201Z,41.40
2022-09-22T02:30:38.093Z,41.66
2022-09-22T02:36:12.550Z,41.45
2022-09-22T02:41:37.054Z,41.39
2022-09-22T02:47:06.278Z,41.31
2022-09-22T02:52:27.935Z,41.43
2022-09-22T02:57:49.615Z,41.39
2022-09-22T03:03:12.161Z,41.68
2022-09-22T03:08:33.938Z,41.59
2022-09-22T03:13:55.602Z,41.55
2022-09-22T03:19:17.240Z,41.45
2022-09-22T03:24:38.977Z,41.22
2022-09-22T03:30:00.658Z,41.30
2022-09-22T03:35:22.391Z,41.20
2022-09-22T03:40:51.115Z,41.46
2022-09-22T03:46:14.437Z,41.29
2022-09-22T03:51:36.149Z,41.24
2022-09-22T03:57:00.789Z,41.31
2022-09-22T04:02:22.582Z,41.59
2022-09-22T04:07:45.182Z,41.27
2022-09-22T04:13:06.836Z,41.47
2022-09-22T04:18:29.708Z,41.56
2022-09-22T04:23:51.436Z,41.13
2022-09-22T04:29:13.048Z,41.51
2022-09-22T04:34:34.707Z,41.49
2022-09-22T04:39:56.364Z,41.54
2022-09-22T04:45:18.718Z,41.11
2022-09-22T04:50:44.492Z,41.52
2022-09-22T04:56:08.957Z,41.34
2022-09-22T05:01:30.703Z,41.33
2022-09-22T05:06:52.445Z,41.54
2022-09-22T05:12:14.105Z,41.49
2022-09-22T05:17:36.421Z,41.38
2022-09-22T05:22:58.126Z,41.07
2022-09-22T05:28:21.414Z,41.12
2022-09-22T05:33:43.141Z,41.55
2022-09-22T05:39:05.028Z,40.91
2022-09-22T05:44:26.850Z,40.53
2022-09-22T05:49:48.567Z,40.67
2022-09-22T05:55:11.563Z,40.75
2022-09-22T06:00:33.276Z,40.51
2022-09-22T06:05:54.955Z,40.22
2022-09-22T06:11:16.612Z,40.21
2022-09-22T06:16:38.293Z,40.32
2022-09-22T06:22:00.171Z,40.30
2022-09-22T06:27:21.816Z,40.25
2022-09-22T06:32:44.028Z,40.56
2022-09-22T06:38:07.468Z,40.83
2022-09-22T06:43:29.111Z,40.61
2022-09-22T06:48:51.625Z,40.61
2022-09-22T06:54:13.519Z,40.70
2022-09-22T06:59:39.194Z,41.01
2022-09-22T07:05:00.811Z,41.15
2022-09-22T07:10:22.454Z,41.39
2022-09-22T07:15:44.934Z,41.23
2022-09-22T07:21:12.409Z,41.54
2022-09-22T07:26:36.900Z,41.51
2022-09-22T07:31:59.589Z,41.19
2022-09-22T07:37:21.308Z,41.17
2022-09-22T07:42:48.081Z,41.42
2022-09-22T07:48:27.931Z,41.06
2022-09-22T07:54:03.309Z,41.23
2022-09-22T07:59:25.829Z,41.54
2022-09-22T08:04:47.481Z,41.45
2022-09-22T08:10:10.988Z,41.51
2022-09-22T08:15:32.637Z,41.67
2022-09-22T08:20:54.346Z,41.48
2022-09-22T08:26:15.993Z,41.39
2022-09-22T08:31:41.627Z,41.60
2022-09-22T08:37:03.382Z,41.02
2022-09-22T08:42:28.604Z,41.26
2022-09-22T08:48:16.190Z,40.93
2022-09-22T08:53:47.805Z,40.77
2022-09-22T08:59:23.198Z,40.82
2022-09-22T09:05:27.698Z,40.90
2022-09-22T09:10:59.314Z,41.00
2022-09-22T09:16:56.543Z,41.04
2022-09-22T09:22:22.967Z,41.20
2022-09-22T09:27:50.364Z,40.63
2022-09-22T09:33:23.861Z,40.55
2022-09-22T09:38:52.238Z,40.18
2022-09-22T09:44:23.741Z,40.39
2022-09-22T09:49:46.444Z,40.56
2022-09-22T09:55:27.200Z,40.53
2022-09-22T10:01:00.643Z,40.50
2022-09-22T10:06:26.621Z,40.22
2022-09-22T10:11:58.351Z,39.62
2022-09-22T10:17:29.154Z,39.70
2022-09-22T10:22:50.831Z,39.97
2022-09-22T10:28:16.350Z,39.79
2022-09-22T10:33:53.947Z,40.42
2022-09-22T10:39:18.812Z,40.17
2022-09-22T10:44:45.208Z,40.44
2022-09-22T10:50:51.135Z,40.11
2022-09-22T10:56:34.173Z,40.76
2022-09-22T11:02:25.805Z,40.68
2022-09-22T11:08:17.587Z,41.06
2022-09-22T11:13:48.996Z,41.16
2022-09-22T11:19:32.326Z,40.92
2022-09-22T11:25:13.342Z,41.01
2022-09-22T11:30:47.402Z,40.86
2022-09-22T11:36:18.233Z,40.86
2022-09-22T11:42:17.981Z,40.79
2022-09-22T11:47:54.523Z,40.56
2022-09-22T11:53:25.049Z,40.57
2022-09-22T11:58:47.795Z,41.15
2022-09-22T12:04:27.095Z,40.96
2022-09-22T12:09:56.419Z,40.93
2022-09-22T12:15:29.337Z,40.83
2022-09-22T12:21:05.555Z,39.77
2022-09-22T12:26:45.194Z,39.66
2022-09-22T12:32:23.848Z,38.56
2022-09-22T12:37:45.732Z,38.02
2022-09-22T12:43:18.075Z,36.83
2022-09-22T12:48:39.869Z,36.69
2022-09-22T12:54:23.119Z,36.15
2022-09-22T12:59:57.329Z,36.44
2022-09-22T13:05:24.806Z,36.30
2022-09-22T13:10:57.983Z,35.86
2022-09-22T13:16:19.617Z,35.74
2022-09-22T13:21:41.974Z,35.55
2022-09-22T13:27:04.898Z,35.49
2022-09-22T13:32:28.598Z,35.48
2022-09-22T13:37:50.463Z,34.75
2022-09-22T13:43:12.453Z,34.48
2022-09-22T13:48:37.630Z,34.21
2022-09-22T13:53:59.387Z,33.92
2022-09-22T13:59:21.805Z,33.58
2022-09-22T14:04:52.494Z,33.47
2022-09-22T14:10:19.642Z,33.70
2022-09-22T14:15:43.937Z,33.71
2022-09-22T14:21:09.688Z,33.56
2022-09-22T14:26:39.158Z,33.69
2022-09-22T14:32:22.452Z,33.40
2022-09-22T14:37:48.915Z,33.31
2022-09-22T14:43:42.469Z,33.02
2022-09-22T14:49:43.659Z,32.90
2022-09-22T14:55:14.700Z,33.61
2022-09-22T15:00:55.329Z,33.47
2022-09-22T15:06:17.263Z,33.47
2022-09-22T15:11:54.852Z,33.62
2022-09-22T15:17:55.839Z,34.34
2022-09-22T15:23:21.347Z,34.52
2022-09-22T15:28:43.660Z,34.22
2022-09-22T15:34:06.676Z,34.79
2022-09-22T15:39:28.341Z,34.74
2022-09-22T15:44:52.677Z,34.89
2022-09-22T15:50:21.324Z,34.61
2022-09-22T15:55:43.109Z,34.93
2022-09-22T16:01:05.855Z,35.04
2022-09-22T16:06:27.966Z,35.21
2022-09-22T16:11:49.784Z,34.82
2022-09-22T16:17:11.474Z,35.25
2022-09-22T16:22:34.097Z,35.14
2022-09-22T16:27:55.708Z,34.90
2022-09-22T16:33:17.632Z,35.02
2022-09-22T16:38:39.670Z,35.13
2022-09-22T16:44:02.675Z,35.72
2022-09-22T16:49:25.718Z,35.59
2022-09-22T16:54:47.446Z,35.58
2022-09-22T17:00:11.766Z,35.56
2022-09-22T17:05:33.622Z,35.77
2022-09-22T17:10:55.970Z,36.29
2022-09-22T17:16:34.891Z,36.37
2022-09-22T17:21:56.995Z,36.29
2022-09-22T17:27:18.873Z,36.29
2022-09-22T17:32:40.618Z,36.37
2022-09-22T17:38:02.583Z,36.42
2022-09-22T17:43:24.432Z,36.88
2022-09-22T17:49:04.973Z,37.00
2022-09-22T17:54:56.448Z,37.21
2022-09-22T18:00:21.405Z,37.46
2022-09-22T18:05:44.003Z,37.57
2022-09-22T18:11:05.665Z,37.70
2022-09-22T18:16:33.291Z,37.80
2022-09-22T18:21:55.717Z,37.96
2022-09-22T18:27:19.722Z,38.14
2022-09-22T18:32:41.589Z,37.90
2022-09-22T18:38:03.389Z,38.29
2022-09-22T18:43:25.133Z,37.98
2022-09-22T18:48:48.763Z,38.40
2022-09-22T18:54:15.302Z,38.15
2022-09-22T18:59:37.155Z,38.70
2022-09-22T19:04:58.799Z,38.84
2022-09-22T19:10:21.953Z,38.89
2022-09-22T19:15:44.155Z,39.04
2022-09-22T19:21:06.043Z,39.23
2022-09-22T19:26:28.980Z,39.23
2022-09-22T19:31:50.732Z,39.07
2022-09-22T19:37:12.501Z,39.17
2022-09-22T19:42:40.104Z,39.43
2022-09-22T19:48:02.547Z,39.41
2022-09-22T19:53:24.279Z,39.68
2022-09-22T19:58:46.203Z,39.89
2022-09-22T20:04:14.490Z,40.31
2022-09-22T20:09:36.538Z,39.63
2022-09-22T20:14:58.176Z,40.23
2022-09-22T20:20:25.355Z,40.09
2022-09-22T20:25:47.479Z,40.10
2022-09-22T20:31:11.999Z,40.13
2022-09-22T20:36:37.032Z,40.45
2022-09-22T20:41:59.943Z,39.97
2022-09-22T20:47:26.137Z,40.39
2022-09-22T20:52:48.136Z,40.21
2022-09-22T20:58:12.821Z,39.97
2022-09-22T21:03:35.510Z,40.00
2022-09-22T21:09:15.634Z,40.24
2022-09-22T21:14:37.304Z,40.22
2022-09-22T21:19:59.020Z,39.96
2022-09-22T21:25:20.849Z,40.48
2022-09-22T21:30:42.576Z,40.22
2022-09-22T21:36:08.723Z,40.17
2022-09-22T21:41:34.126Z,40.23
2022-09-22T21:46:55.652Z,40.21
2022-09-22T21:52:17.581Z,40.42
2022-09-22T21:57:39.207Z,40.33
2022-09-22T22:03:32.813Z,40.52
2022-09-22T22:09:01.068Z,40.31
2022-09-22T22:14:24.770Z,40.63
2022-09-22T22:19:47.624Z,40.11
2022-09-22T22:25:18.540Z,40.45
2022-09-22T22:30:41.091Z,40.49
2022-09-22T22:36:04.681Z,40.59
2022-09-22T22:41:26.403Z,40.43
2022-09-22T22:46:48.269Z,40.31
2022-09-22T22:52:09.906Z,40.46
2022-09-22T22:57:31.555Z,40.13
2022-09-22T23:02:53.236Z,40.09
2022-09-22T23:08:14.871Z,40.45
2022-09-22T23:13:36.523Z,40.09
2022-09-22T23:19:01.468Z,40.02
2022-09-22T23:24:23.124Z,40.37
2022-09-22T23:29:44.766Z,40.07
2022-09-22T23:35:06.906Z,39.96
2022-09-22T23:40:30.432Z,40.17
2022-09-22T23:45:53.175Z,40.38
2022-09-22T23:51:14.906Z,40.19
2022-09-22T23:56:37.188Z,40.42
